CCA1339 ZBAA-ZGGG
Flight info
| Callsign | CCA1339 |
|---|---|
| Flight time | N/A |
| Altitude | 36100 |
| Route | RUSDO9Z RUSDO W45 IKAVO IKAVO9 |
| Aircraft | B77W/H-SDE1E2E3FGHIJ2J3J4J5M1RWXY/LB1D1 |
Departure
| Time | 2026-05-04 04:28 |
|---|---|
| Airport | Beijing Capital International Airport (ZBAA) |
Arrival
| Time | N/A |
|---|---|
| Airport | Guangzhou Baiyun International Airport (ZGGG) |
| Time | Latitude | Longitude | Altitude | Speed | Heading |
|---|---|---|---|---|---|
| 2026-05-04 04:18 | 40.06492 | 116.60603 | 153 ft | 0 kts | 83° |
| 2026-05-04 04:20 | 40.06491 | 116.60599 | 152 ft | 2 kts | 83° |
| 2026-05-04 04:20 | 40.06490 | 116.60578 | 119 ft | 2 kts | 86° |
| 2026-05-04 04:20 | 40.06489 | 116.60556 | 118 ft | 2 kts | 90° |
| 2026-05-04 04:20 | 40.06490 | 116.60535 | 125 ft | 2 kts | 95° |
| 2026-05-04 04:21 | 40.06492 | 116.60514 | 123 ft | 2 kts | 105° |
| 2026-05-04 04:21 | 40.06498 | 116.60494 | 123 ft | 2 kts | 127° |
| 2026-05-04 04:21 | 40.06510 | 116.60480 | 123 ft | 2 kts | 165° |
| 2026-05-04 04:21 | 40.06526 | 116.60477 | 123 ft | 1 kts | 172° |
| 2026-05-04 04:22 | 40.06527 | 116.60476 | 123 ft | 0 kts | 171° |
| 2026-05-04 04:23 | 40.06513 | 116.60479 | 123 ft | 5 kts | 172° |
| 2026-05-04 04:24 | 40.06459 | 116.60488 | 124 ft | 11 kts | 173° |
| 2026-05-04 04:24 | 40.06361 | 116.60503 | 126 ft | 17 kts | 173° |
| 2026-05-04 04:24 | 40.06292 | 116.60456 | 126 ft | 14 kts | 248° |
| 2026-05-04 04:24 | 40.06273 | 116.60307 | 128 ft | 19 kts | 263° |
| 2026-05-04 04:25 | 40.06255 | 116.60177 | 124 ft | 12 kts | 237° |
| 2026-05-04 04:25 | 40.06161 | 116.60154 | 124 ft | 17 kts | 173° |
| 2026-05-04 04:25 | 40.06027 | 116.60175 | 126 ft | 22 kts | 173° |
| 2026-05-04 04:25 | 40.05859 | 116.60201 | 124 ft | 27 kts | 173° |
| 2026-05-04 04:26 | 40.05683 | 116.60226 | 126 ft | 9 kts | 183° |
| 2026-05-04 04:26 | 40.05639 | 116.60184 | 123 ft | 9 kts | 241° |
| 2026-05-04 04:26 | 40.05631 | 116.60133 | 123 ft | 2 kts | 263° |
| 2026-05-04 04:26 | 40.05628 | 116.60111 | 127 ft | 3 kts | 263° |
| 2026-05-04 04:27 | 40.05624 | 116.60068 | 127 ft | 6 kts | 263° |
| 2026-05-04 04:27 | 40.05638 | 116.60017 | 126 ft | 7 kts | 309° |
| 2026-05-04 04:27 | 40.05682 | 116.59993 | 126 ft | 7 kts | 352° |
| 2026-05-04 04:27 | 40.05738 | 116.59985 | 128 ft | 9 kts | 353° |
| 2026-05-04 04:28 | 40.05903 | 116.59960 | 129 ft | 54 kts | 353° |
| 2026-05-04 04:28 | 40.06621 | 116.59846 | 123 ft | 151 kts | 353° |
| 2026-05-04 04:28 | 40.07914 | 116.59663 | 382 ft | 205 kts | 352° |
| 2026-05-04 04:28 | 40.09365 | 116.59478 | 1163 ft | 210 kts | 352° |
| 2026-05-04 04:29 | 40.10812 | 116.59252 | 2194 ft | 213 kts | 350° |
| 2026-05-04 04:29 | 40.12374 | 116.58989 | 2580 ft | 241 kts | 351° |
| 2026-05-04 04:29 | 40.14112 | 116.58692 | 3182 ft | 259 kts | 350° |
| 2026-05-04 04:29 | 40.15927 | 116.58397 | 4053 ft | 266 kts | 350° |
| 2026-05-04 04:30 | 40.17774 | 116.58090 | 5054 ft | 269 kts | 350° |
| 2026-05-04 04:30 | 40.19636 | 116.57795 | 6093 ft | 269 kts | 351° |
| 2026-05-04 04:30 | 40.21491 | 116.57503 | 7104 ft | 268 kts | 351° |
| 2026-05-04 04:30 | 40.23327 | 116.57206 | 8059 ft | 270 kts | 351° |
| 2026-05-04 04:31 | 40.25137 | 116.56657 | 8838 ft | 269 kts | 332° |
| 2026-05-04 04:31 | 40.26620 | 116.55153 | 9562 ft | 272 kts | 317° |
| 2026-05-04 04:31 | 40.28034 | 116.53473 | 10362 ft | 278 kts | 318° |
| 2026-05-04 04:31 | 40.29537 | 116.51729 | 10733 ft | 302 kts | 319° |
| 2026-05-04 04:32 | 40.30995 | 116.49626 | 10882 ft | 327 kts | 301° |
| 2026-05-04 04:32 | 40.31713 | 116.46680 | 11159 ft | 356 kts | 276° |
| 2026-05-04 04:32 | 40.31732 | 116.43372 | 11705 ft | 369 kts | 271° |
| 2026-05-04 04:32 | 40.31699 | 116.39969 | 12611 ft | 377 kts | 272° |
| 2026-05-04 04:33 | 40.31678 | 116.36510 | 13630 ft | 382 kts | 272° |
| 2026-05-04 04:33 | 40.31662 | 116.32996 | 14561 ft | 388 kts | 272° |
| 2026-05-04 04:33 | 40.31655 | 116.29440 | 15445 ft | 393 kts | 272° |
| 2026-05-04 04:33 | 40.31652 | 116.25828 | 16313 ft | 399 kts | 272° |
| 2026-05-04 04:34 | 40.31651 | 116.22178 | 17211 ft | 403 kts | 272° |
| 2026-05-04 04:34 | 40.31647 | 116.18482 | 18101 ft | 409 kts | 272° |
| 2026-05-04 04:34 | 40.31639 | 116.14727 | 18855 ft | 415 kts | 272° |
| 2026-05-04 04:34 | 40.31631 | 116.10922 | 19587 ft | 420 kts | 272° |
| 2026-05-04 04:35 | 40.31623 | 116.07121 | 20317 ft | 425 kts | 271° |
| 2026-05-04 04:35 | 40.31603 | 116.03224 | 21045 ft | 427 kts | 270° |
| 2026-05-04 04:35 | 40.31061 | 115.99362 | 21537 ft | 440 kts | 250° |
| 2026-05-04 04:35 | 40.29490 | 115.95884 | 22186 ft | 450 kts | 231° |
| 2026-05-04 04:36 | 40.27179 | 115.93103 | 22944 ft | 455 kts | 214° |
| 2026-05-04 04:36 | 40.24407 | 115.91107 | 23598 ft | 457 kts | 207° |
| 2026-05-04 04:36 | 40.21539 | 115.89235 | 24111 ft | 464 kts | 207° |
| 2026-05-04 04:36 | 40.18630 | 115.87347 | 24679 ft | 468 kts | 207° |
| 2026-05-04 04:37 | 40.09836 | 115.81498 | 26423 ft | 478 kts | 208° |
| 2026-05-04 04:37 | 40.06869 | 115.79489 | 26956 ft | 482 kts | 208° |
| 2026-05-04 04:38 | 40.03878 | 115.77463 | 27473 ft | 486 kts | 209° |
| 2026-05-04 04:38 | 40.00867 | 115.75426 | 27972 ft | 490 kts | 209° |
| 2026-05-04 04:38 | 39.97825 | 115.73374 | 28436 ft | 494 kts | 209° |
| 2026-05-04 04:38 | 39.94760 | 115.71311 | 28905 ft | 497 kts | 209° |
| 2026-05-04 04:39 | 39.91671 | 115.69234 | 29354 ft | 500 kts | 209° |
| 2026-05-04 04:39 | 39.88571 | 115.67152 | 29780 ft | 503 kts | 209° |
| 2026-05-04 04:39 | 39.85540 | 115.64904 | 30043 ft | 501 kts | 219° |
| 2026-05-04 04:39 | 39.83051 | 115.61831 | 30285 ft | 498 kts | 235° |
| 2026-05-04 04:40 | 39.81322 | 115.58000 | 30675 ft | 488 kts | 248° |
| 2026-05-04 04:40 | 39.79860 | 115.54010 | 31060 ft | 490 kts | 246° |
| 2026-05-04 04:40 | 39.78299 | 115.50077 | 31601 ft | 488 kts | 245° |
| 2026-05-04 04:40 | 39.76698 | 115.46208 | 32165 ft | 484 kts | 245° |
| 2026-05-04 04:41 | 39.75109 | 115.42360 | 32715 ft | 482 kts | 246° |
| 2026-05-04 04:41 | 39.73566 | 115.38510 | 33223 ft | 479 kts | 246° |
| 2026-05-04 04:41 | 39.72048 | 115.34659 | 33651 ft | 478 kts | 247° |
| 2026-05-04 04:41 | 39.70542 | 115.30819 | 34073 ft | 477 kts | 247° |
| 2026-05-04 04:42 | 39.69039 | 115.26989 | 34440 ft | 476 kts | 247° |
| 2026-05-04 04:42 | 39.67530 | 115.23158 | 34812 ft | 475 kts | 247° |
| 2026-05-04 04:42 | 39.66023 | 115.19352 | 35163 ft | 474 kts | 247° |
| 2026-05-04 04:42 | 39.64512 | 115.15547 | 35496 ft | 474 kts | 247° |
| 2026-05-04 04:43 | 39.62999 | 115.11745 | 35799 ft | 473 kts | 247° |
| 2026-05-04 04:43 | 39.61483 | 115.07942 | 36004 ft | 476 kts | 247° |
| 2026-05-04 04:43 | 39.58427 | 115.00290 | 36031 ft | 476 kts | 246° |
| 2026-05-04 04:44 | 39.55388 | 114.92710 | 36060 ft | 472 kts | 247° |
| 2026-05-04 04:44 | 39.52378 | 114.85209 | 36068 ft | 472 kts | 247° |
| 2026-05-04 04:45 | 39.49347 | 114.77671 | 36050 ft | 472 kts | 246° |
| 2026-05-04 04:47 | 39.38791 | 114.51574 | 36064 ft | 471 kts | 246° |
| 2026-05-04 04:47 | 39.35721 | 114.44083 | 36062 ft | 471 kts | 246° |
| 2026-05-04 04:48 | 39.32631 | 114.36589 | 36037 ft | 472 kts | 246° |
| 2026-05-04 04:49 | 39.24919 | 114.18117 | 36055 ft | 475 kts | 238° |
| 2026-05-04 04:49 | 39.22644 | 114.14986 | 36073 ft | 484 kts | 222° |
| 2026-05-04 04:49 | 39.19784 | 114.12630 | 36077 ft | 493 kts | 208° |
| 2026-05-04 04:50 | 39.13178 | 114.10078 | 36069 ft | 499 kts | 198° |
| 2026-05-04 04:50 | 39.06423 | 114.07833 | 36081 ft | 502 kts | 198° |
| 2026-05-04 04:51 | 38.99666 | 114.05482 | 36072 ft | 503 kts | 199° |
| 2026-05-04 04:51 | 38.92968 | 114.03098 | 36077 ft | 502 kts | 199° |
| 2026-05-04 04:52 | 38.86231 | 114.00698 | 36078 ft | 502 kts | 199° |
| 2026-05-04 04:52 | 38.79506 | 113.98314 | 36079 ft | 501 kts | 199° |
| 2026-05-04 04:53 | 38.72790 | 113.95939 | 36086 ft | 499 kts | 199° |
| 2026-05-04 04:53 | 38.66094 | 113.93575 | 36089 ft | 498 kts | 199° |
| 2026-05-04 04:54 | 38.59417 | 113.91232 | 36095 ft | 497 kts | 199° |
| 2026-05-04 04:54 | 38.52741 | 113.88899 | 36088 ft | 497 kts | 199° |
| 2026-05-04 04:55 | 38.46077 | 113.86574 | 36089 ft | 497 kts | 199° |
| 2026-05-04 04:55 | 38.39400 | 113.84245 | 36069 ft | 497 kts | 199° |
| 2026-05-04 04:56 | 38.32739 | 113.81928 | 36088 ft | 496 kts | 199° |
| 2026-05-04 04:56 | 38.26114 | 113.79637 | 36095 ft | 496 kts | 199° |
| 2026-05-04 04:57 | 38.19444 | 113.77336 | 36057 ft | 496 kts | 199° |
| 2026-05-04 04:57 | 38.12775 | 113.75039 | 36070 ft | 497 kts | 199° |
| 2026-05-04 04:58 | 38.06097 | 113.72740 | 36078 ft | 497 kts | 199° |
| 2026-05-04 04:58 | 37.99428 | 113.70450 | 36077 ft | 497 kts | 199° |
| 2026-05-04 04:59 | 37.92748 | 113.68162 | 36078 ft | 497 kts | 199° |
| 2026-05-04 04:59 | 37.86073 | 113.65878 | 36074 ft | 497 kts | 199° |
| 2026-05-04 05:00 | 37.79398 | 113.63599 | 36064 ft | 497 kts | 199° |